createdAt,value
2022-08-22T07:04:18.587Z,23.71
2022-08-22T07:09:38.689Z,23.81
2022-08-22T07:14:44.408Z,23.63
2022-08-22T07:20:23.930Z,24.07
2022-08-22T07:25:28.310Z,24.40
2022-08-22T07:31:10.587Z,24.34
2022-08-22T07:36:32.238Z,24.12
2022-08-22T07:41:56.437Z,24.32
2022-08-22T07:47:07.022Z,24.59
2022-08-22T07:52:13.932Z,24.36
2022-08-22T07:57:21.431Z,24.45
2022-08-22T08:02:25.976Z,24.53
2022-08-22T08:07:30.421Z,24.35
2022-08-22T08:12:44.799Z,24.53
2022-08-22T08:18:06.070Z,24.19
2022-08-22T08:23:12.093Z,24.16
2022-08-22T08:28:34.019Z,24.73
2022-08-22T08:33:41.052Z,24.47
2022-08-22T08:38:49.651Z,23.97
2022-08-22T08:44:01.912Z,24.75
2022-08-22T08:49:42.154Z,25.58
2022-08-22T08:55:34.264Z,26.29
2022-08-22T09:00:43.197Z,26.16
2022-08-22T09:06:07.708Z,25.33
2022-08-22T09:11:35.188Z,26.04
2022-08-22T09:17:15.389Z,25.99
2022-08-22T09:22:45.796Z,26.33
2022-08-22T09:28:17.517Z,25.35
2022-08-22T09:33:25.020Z,26.18
2022-08-22T09:38:51.971Z,25.77
2022-08-22T09:44:07.471Z,25.58
2022-08-22T09:49:45.110Z,26.12
2022-08-22T09:55:04.384Z,26.05
2022-08-22T10:00:22.471Z,25.02
2022-08-22T10:05:44.043Z,25.56
2022-08-22T10:11:06.839Z,25.90
2022-08-22T10:16:19.917Z,25.23
2022-08-22T10:21:31.197Z,25.97
2022-08-22T10:26:39.533Z,26.05
2022-08-22T10:31:59.438Z,25.28
2022-08-22T10:37:47.306Z,25.85
2022-08-22T10:43:13.485Z,25.86
2022-08-22T10:48:27.196Z,25.94
2022-08-22T10:53:43.018Z,26.08
2022-08-22T10:58:56.460Z,25.67
2022-08-22T11:04:17.588Z,26.50
2022-08-22T11:09:20.801Z,25.56
2022-08-22T11:14:53.089Z,26.11
2022-08-22T11:19:59.679Z,25.36
2022-08-22T11:25:36.188Z,25.91
2022-08-22T11:31:16.455Z,26.56
2022-08-22T11:36:31.063Z,26.13
2022-08-22T11:42:01.712Z,25.51
2022-08-22T11:47:11.807Z,25.72
2022-08-22T11:52:27.052Z,26.59
2022-08-22T11:57:37.330Z,25.77
2022-08-22T12:02:49.861Z,25.68
2022-08-22T12:08:15.190Z,26.78
2022-08-22T12:13:49.632Z,25.80
2022-08-22T12:19:06.876Z,25.60
2022-08-22T12:24:18.977Z,26.20
2022-08-22T12:29:59.683Z,25.63
2022-08-22T12:35:31.213Z,25.45
2022-08-22T12:40:43.586Z,25.25
2022-08-22T12:46:32.467Z,25.05
2022-08-22T12:51:46.910Z,26.13
2022-08-22T12:57:23.409Z,25.72
2022-08-22T13:02:31.795Z,25.24
2022-08-22T13:07:37.349Z,25.12
2022-08-22T13:12:47.131Z,25.06
2022-08-22T13:17:54.967Z,25.11
2022-08-22T13:23:01.820Z,25.19
2022-08-22T13:28:12.809Z,25.00
2022-08-22T13:33:39.185Z,24.68
2022-08-22T13:38:54.459Z,25.29
2022-08-22T13:44:10.099Z,25.98
2022-08-22T13:49:20.513Z,25.63
2022-08-22T13:54:50.073Z,25.59
2022-08-22T14:00:27.444Z,25.43
2022-08-22T14:05:46.668Z,25.17
2022-08-22T14:10:58.092Z,24.99
2022-08-22T14:16:28.112Z,25.11
2022-08-22T14:21:40.140Z,26.20
2022-08-22T14:27:05.724Z,25.36
2022-08-22T14:32:35.051Z,25.33
2022-08-22T14:37:42.910Z,26.09
2022-08-22T14:42:55.953Z,25.16
2022-08-22T14:48:30.197Z,25.96
2022-08-22T14:53:38.190Z,25.92
2022-08-22T14:58:49.618Z,25.34
2022-08-22T15:04:04.092Z,26.31
2022-08-22T15:09:33.420Z,25.16
2022-08-22T15:14:36.425Z,25.91
2022-08-22T15:19:46.803Z,25.75
2022-08-22T15:24:54.954Z,24.99
2022-08-22T15:30:20.605Z,25.69
2022-08-22T15:35:31.361Z,25.86
2022-08-22T15:40:45.709Z,24.83
2022-08-22T15:45:52.696Z,25.21
2022-08-22T15:51:04.998Z,25.07
2022-08-22T15:56:12.464Z,24.41
2022-08-22T16:01:22.519Z,25.25
2022-08-22T16:06:51.350Z,24.95
2022-08-22T16:11:56.814Z,24.20
2022-08-22T16:17:01.866Z,24.86
2022-08-22T16:22:08.617Z,24.39
2022-08-22T16:27:21.741Z,24.14
2022-08-22T16:32:28.389Z,24.92
2022-08-22T16:37:40.309Z,24.29
2022-08-22T16:42:52.228Z,24.48
2022-08-22T16:47:59.407Z,24.95
2022-08-22T16:53:11.244Z,25.12
2022-08-22T16:58:20.190Z,24.44
2022-08-22T17:03:32.418Z,24.56
2022-08-22T17:09:00.004Z,24.57
2022-08-22T17:14:14.079Z,24.58
2022-08-22T17:19:29.151Z,23.48
2022-08-22T17:24:45.215Z,23.79
2022-08-22T17:30:09.676Z,23.89
2022-08-22T17:35:33.156Z,23.60
2022-08-22T17:40:38.329Z,23.83
2022-08-22T17:46:13.785Z,23.69
2022-08-22T17:51:43.247Z,24.00
2022-08-22T17:57:05.078Z,23.78
2022-08-22T18:02:16.500Z,23.75
2022-08-22T18:07:45.377Z,23.42
2022-08-22T18:13:07.976Z,23.86
2022-08-22T18:18:35.423Z,24.21
2022-08-22T18:23:45.088Z,24.14
2022-08-22T18:29:00.686Z,23.06
2022-08-22T18:34:14.343Z,23.48
2022-08-22T18:39:51.117Z,23.75
2022-08-22T18:44:54.761Z,23.70
2022-08-22T18:49:58.079Z,24.01
2022-08-22T18:55:22.588Z,23.96
2022-08-22T19:01:05.063Z,23.87
2022-08-22T19:06:36.091Z,24.14
2022-08-22T19:12:02.036Z,24.05
2022-08-22T19:17:21.843Z,22.78
2022-08-22T19:22:34.656Z,23.43
2022-08-22T19:27:41.605Z,23.71
2022-08-22T19:32:44.571Z,23.65
2022-08-22T19:38:02.823Z,23.72
2022-08-22T19:43:25.203Z,23.76
2022-08-22T19:48:44.732Z,23.78
2022-08-22T19:53:55.030Z,23.75
2022-08-22T19:59:07.088Z,24.00
2022-08-22T20:04:09.988Z,24.09
2022-08-22T20:09:48.426Z,24.06
2022-08-22T20:14:51.827Z,22.99
2022-08-22T20:25:44.226Z,24.26
2022-08-22T20:30:56.026Z,24.69
2022-08-22T20:36:03.644Z,24.99
2022-08-22T20:41:20.983Z,24.10
2022-08-22T20:46:24.467Z,23.17
2022-08-22T20:51:31.646Z,24.19
2022-08-22T20:56:36.289Z,24.75
2022-08-22T21:01:40.317Z,24.67
2022-08-22T21:06:43.315Z,23.05
2022-08-22T21:11:51.647Z,22.67
2022-08-22T21:16:54.586Z,23.28
2022-08-22T21:22:32.376Z,24.00
2022-08-22T21:27:35.687Z,24.47
2022-08-22T21:32:43.412Z,24.69
2022-08-22T21:37:47.191Z,24.13
2022-08-22T21:43:09.800Z,23.11
2022-08-22T21:48:31.542Z,23.43
2022-08-22T21:53:34.548Z,23.58
2022-08-22T21:58:41.209Z,23.62
2022-08-22T22:03:44.867Z,24.03
2022-08-22T22:08:51.040Z,24.42
2022-08-22T22:13:54.151Z,24.78
2022-08-22T22:18:57.467Z,24.63
2022-08-22T22:24:00.476Z,22.94
2022-08-22T22:29:04.389Z,23.32
2022-08-22T22:34:07.507Z,24.08
2022-08-22T22:39:11.266Z,24.33
2022-08-22T22:44:14.175Z,24.58
2022-08-22T22:49:18.813Z,23.85
2022-08-22T22:54:27.323Z,22.91
2022-08-22T22:59:30.527Z,23.43
2022-08-22T23:04:38.461Z,23.40
2022-08-22T23:09:45.200Z,23.32
2022-08-22T23:14:48.680Z,23.53
2022-08-22T23:19:52.690Z,23.52
2022-08-22T23:24:55.707Z,23.16
2022-08-22T23:29:58.715Z,23.21
2022-08-22T23:35:01.726Z,23.38
2022-08-22T23:40:08.178Z,23.75
2022-08-22T23:45:11.514Z,24.07
2022-08-22T23:50:14.419Z,24.35
2022-08-22T23:55:17.729Z,24.55
